WMT2VZ LIPQ-LATI
Flight info
| Callsign | WMT2VZ |
|---|---|
| Flight time | N/A |
| Altitude | 35000 |
| Route | RCH DCT GIRDA DCT KENEM DCT MADOS |
| Aircraft | A321/M-SDE3FGHIRWY/LB1 |
Departure
| Time | 2026-04-24 16:15 |
|---|---|
| Airport | Trieste Airport (LIPQ) |
Arrival
| Time | N/A |
|---|---|
| Airport | Tirana International Airport Mother Teresa (LATI) |
| Time | Latitude | Longitude | Altitude | Speed | Heading |
|---|---|---|---|---|---|
| 2026-04-24 15:45 | 45.82236 | 13.48618 | 47 ft | 0 kts | 148° |
| 2026-04-24 16:10 | 45.82233 | 13.48618 | 47 ft | 1 kts | 167° |
| 2026-04-24 16:11 | 45.82234 | 13.48602 | 47 ft | 1 kts | 298° |
| 2026-04-24 16:11 | 45.82243 | 13.48600 | 47 ft | 3 kts | 346° |
| 2026-04-24 16:11 | 45.82263 | 13.48588 | 47 ft | 4 kts | 333° |
| 2026-04-24 16:12 | 45.82327 | 13.48572 | 47 ft | 6 kts | 1° |
| 2026-04-24 16:12 | 45.82371 | 13.48572 | 47 ft | 7 kts | 1° |
| 2026-04-24 16:12 | 45.82479 | 13.48573 | 46 ft | 9 kts | 0° |
| 2026-04-24 16:13 | 45.82544 | 13.48573 | 47 ft | 10 kts | 0° |
| 2026-04-24 16:13 | 45.82694 | 13.48576 | 47 ft | 12 kts | 1° |
| 2026-04-24 16:14 | 45.82777 | 13.48394 | 45 ft | 30 kts | 270° |
| 2026-04-24 16:14 | 45.82780 | 13.47742 | 48 ft | 99 kts | 270° |
| 2026-04-24 16:14 | 45.82798 | 13.44847 | 537 ft | 161 kts | 270° |
| 2026-04-24 16:15 | 45.82802 | 13.43775 | 979 ft | 163 kts | 267° |
| 2026-04-24 16:15 | 45.82799 | 13.39835 | 2200 ft | 186 kts | 268° |
| 2026-04-24 16:16 | 45.82787 | 13.35844 | 2797 ft | 218 kts | 270° |
| 2026-04-24 16:16 | 45.82802 | 13.33571 | 3013 ft | 238 kts | 271° |
| 2026-04-24 16:17 | 45.84606 | 13.26692 | 4657 ft | 269 kts | 327° |
| 2026-04-24 16:17 | 45.88199 | 13.26111 | 6205 ft | 272 kts | 22° |
| 2026-04-24 16:18 | 45.90542 | 13.30181 | 7626 ft | 281 kts | 77° |
| 2026-04-24 16:18 | 45.89461 | 13.35500 | 8963 ft | 295 kts | 125° |
| 2026-04-24 16:18 | 45.88210 | 13.37854 | 9608 ft | 299 kts | 124° |
| 2026-04-24 16:19 | 45.85629 | 13.42765 | 10440 ft | 325 kts | 124° |
| 2026-04-24 16:19 | 45.84253 | 13.45466 | 10580 ft | 345 kts | 121° |
| 2026-04-24 16:20 | 45.81185 | 13.51116 | 11202 ft | 372 kts | 131° |
| 2026-04-24 16:20 | 45.77739 | 13.56739 | 12401 ft | 378 kts | 127° |
| 2026-04-24 16:20 | 45.76108 | 13.59713 | 13022 ft | 381 kts | 126° |
| 2026-04-24 16:21 | 45.72922 | 13.65822 | 14258 ft | 385 kts | 124° |
| 2026-04-24 16:21 | 45.71325 | 13.68910 | 14810 ft | 387 kts | 125° |
| 2026-04-24 16:21 | 45.69706 | 13.72012 | 15370 ft | 390 kts | 125° |
| 2026-04-24 16:22 | 45.68068 | 13.75118 | 15939 ft | 393 kts | 125° |
| 2026-04-24 16:22 | 45.64738 | 13.81365 | 17105 ft | 398 kts | 125° |
| 2026-04-24 16:22 | 45.63050 | 13.84517 | 17669 ft | 401 kts | 125° |
| 2026-04-24 16:23 | 45.61351 | 13.87693 | 18245 ft | 403 kts | 125° |
| 2026-04-24 16:23 | 45.59642 | 13.90887 | 18744 ft | 406 kts | 125° |
| 2026-04-24 16:23 | 45.57920 | 13.94099 | 19231 ft | 409 kts | 125° |
| 2026-04-24 16:24 | 45.54444 | 14.00579 | 20222 ft | 413 kts | 125° |
| 2026-04-24 16:24 | 45.52689 | 14.03843 | 20731 ft | 415 kts | 125° |
| 2026-04-24 16:24 | 45.50931 | 14.07111 | 21197 ft | 417 kts | 126° |
| 2026-04-24 16:24 | 45.49157 | 14.10402 | 21651 ft | 419 kts | 126° |
| 2026-04-24 16:25 | 45.47390 | 14.13666 | 22102 ft | 421 kts | 126° |
| 2026-04-24 16:25 | 45.45526 | 14.16907 | 22498 ft | 424 kts | 128° |
| 2026-04-24 16:25 | 45.43581 | 14.20077 | 22938 ft | 426 kts | 129° |
| 2026-04-24 16:26 | 45.39559 | 14.26343 | 23759 ft | 430 kts | 131° |
| 2026-04-24 16:26 | 45.37533 | 14.29489 | 24108 ft | 433 kts | 130° |
| 2026-04-24 16:26 | 45.33484 | 14.35873 | 24802 ft | 436 kts | 130° |
| 2026-04-24 16:27 | 45.31459 | 14.39101 | 25139 ft | 438 kts | 129° |
| 2026-04-24 16:27 | 45.29432 | 14.42341 | 25490 ft | 440 kts | 130° |
| 2026-04-24 16:27 | 45.27395 | 14.45596 | 25781 ft | 443 kts | 129° |
| 2026-04-24 16:27 | 45.25343 | 14.48869 | 26077 ft | 445 kts | 129° |
| 2026-04-24 16:28 | 45.23276 | 14.52154 | 26382 ft | 447 kts | 129° |
| 2026-04-24 16:28 | 45.21200 | 14.55441 | 26724 ft | 448 kts | 130° |
| 2026-04-24 16:28 | 45.17020 | 14.62034 | 27341 ft | 451 kts | 130° |
| 2026-04-24 16:29 | 45.14911 | 14.65351 | 27666 ft | 454 kts | 130° |
| 2026-04-24 16:29 | 45.12794 | 14.68680 | 27984 ft | 455 kts | 129° |
| 2026-04-24 16:29 | 45.08542 | 14.75373 | 28600 ft | 459 kts | 129° |
| 2026-04-24 16:30 | 45.04245 | 14.82120 | 29266 ft | 461 kts | 129° |
| 2026-04-24 16:30 | 45.02125 | 14.85438 | 29702 ft | 460 kts | 129° |
| 2026-04-24 16:30 | 44.99984 | 14.88788 | 30121 ft | 459 kts | 129° |
| 2026-04-24 16:31 | 44.97844 | 14.92131 | 30493 ft | 457 kts | 129° |
| 2026-04-24 16:31 | 44.95715 | 14.95455 | 30856 ft | 455 kts | 129° |
| 2026-04-24 16:31 | 44.93598 | 14.98765 | 31213 ft | 454 kts | 129° |
| 2026-04-24 16:31 | 44.91483 | 15.02067 | 31557 ft | 453 kts | 129° |
| 2026-04-24 16:32 | 44.90052 | 15.04291 | 31778 ft | 452 kts | 129° |
| 2026-04-24 16:32 | 44.87253 | 15.08628 | 32276 ft | 450 kts | 129° |
| 2026-04-24 16:32 | 44.85149 | 15.11882 | 32644 ft | 449 kts | 129° |
| 2026-04-24 16:32 | 44.83048 | 15.15133 | 32998 ft | 448 kts | 129° |
| 2026-04-24 16:33 | 44.80952 | 15.18383 | 33355 ft | 447 kts | 128° |
| 2026-04-24 16:33 | 44.78869 | 15.21611 | 33696 ft | 445 kts | 128° |
| 2026-04-24 16:33 | 44.76787 | 15.24833 | 34028 ft | 445 kts | 128° |
| 2026-04-24 16:33 | 44.74709 | 15.28044 | 34308 ft | 444 kts | 128° |
| 2026-04-24 16:34 | 44.72630 | 15.31246 | 34604 ft | 442 kts | 128° |
| 2026-04-24 16:34 | 44.70554 | 15.34436 | 34892 ft | 441 kts | 128° |
| 2026-04-24 16:34 | 44.68481 | 15.37618 | 35020 ft | 441 kts | 128° |
| 2026-04-24 16:34 | 44.66409 | 15.40796 | 35062 ft | 441 kts | 128° |
| 2026-04-24 16:35 | 44.62272 | 15.47130 | 35040 ft | 440 kts | 128° |
| 2026-04-24 16:35 | 44.58133 | 15.53457 | 35057 ft | 439 kts | 128° |
| 2026-04-24 16:36 | 44.54031 | 15.59729 | 35034 ft | 440 kts | 128° |
| 2026-04-24 16:36 | 44.49890 | 15.66044 | 35053 ft | 440 kts | 128° |
| 2026-04-24 16:37 | 44.45738 | 15.72347 | 35061 ft | 440 kts | 128° |
| 2026-04-24 16:37 | 44.41581 | 15.78636 | 35054 ft | 440 kts | 128° |
| 2026-04-24 16:38 | 44.37429 | 15.84912 | 35058 ft | 439 kts | 128° |
| 2026-04-24 16:38 | 44.33268 | 15.91195 | 35062 ft | 440 kts | 128° |
| 2026-04-24 16:39 | 44.29112 | 15.97461 | 35064 ft | 440 kts | 129° |
| 2026-04-24 16:39 | 44.24947 | 16.03726 | 35049 ft | 440 kts | 129° |
| 2026-04-24 16:40 | 44.20766 | 16.09985 | 35057 ft | 440 kts | 129° |
| 2026-04-24 16:40 | 44.16587 | 16.16229 | 35056 ft | 441 kts | 129° |
| 2026-04-24 16:41 | 44.12412 | 16.22463 | 35042 ft | 439 kts | 129° |
| 2026-04-24 16:41 | 44.08259 | 16.28642 | 35050 ft | 439 kts | 129° |
| 2026-04-24 16:42 | 44.04076 | 16.34846 | 35032 ft | 440 kts | 129° |
| 2026-04-24 16:42 | 43.99896 | 16.41045 | 35039 ft | 439 kts | 129° |
| 2026-04-24 16:43 | 43.95711 | 16.47238 | 35045 ft | 440 kts | 129° |
| 2026-04-24 16:43 | 43.91520 | 16.53417 | 35039 ft | 440 kts | 129° |
| 2026-04-24 16:44 | 43.88034 | 16.58549 | 35041 ft | 440 kts | 129° |
| 2026-04-24 16:44 | 43.83841 | 16.64718 | 35029 ft | 440 kts | 129° |
| 2026-04-24 16:45 | 43.79642 | 16.70880 | 35040 ft | 439 kts | 129° |
| 2026-04-24 16:45 | 43.75440 | 16.77039 | 35047 ft | 439 kts | 129° |
| 2026-04-24 16:46 | 43.71231 | 16.83177 | 35041 ft | 440 kts | 129° |
| 2026-04-24 16:46 | 43.67013 | 16.89319 | 35040 ft | 440 kts | 129° |
| 2026-04-24 16:47 | 43.62816 | 16.95407 | 35049 ft | 441 kts | 130° |
| 2026-04-24 16:47 | 43.58389 | 17.01304 | 35048 ft | 443 kts | 133° |
| 2026-04-24 16:48 | 43.53835 | 17.07022 | 35053 ft | 443 kts | 134° |
| 2026-04-24 16:48 | 43.49291 | 17.12764 | 35047 ft | 444 kts | 133° |
| 2026-04-24 16:49 | 43.44771 | 17.18562 | 35048 ft | 444 kts | 133° |
| 2026-04-24 16:49 | 43.40255 | 17.24367 | 35050 ft | 444 kts | 133° |
| 2026-04-24 16:50 | 43.35735 | 17.30160 | 35048 ft | 445 kts | 133° |
| 2026-04-24 16:50 | 43.31197 | 17.35941 | 35043 ft | 445 kts | 133° |
| 2026-04-24 16:51 | 43.26663 | 17.41714 | 35056 ft | 445 kts | 133° |
| 2026-04-24 16:51 | 43.22120 | 17.47486 | 35051 ft | 445 kts | 133° |
| 2026-04-24 16:52 | 43.17578 | 17.53241 | 35046 ft | 444 kts | 133° |
| 2026-04-24 16:52 | 43.13044 | 17.58986 | 35043 ft | 444 kts | 133° |
| 2026-04-24 16:53 | 43.08509 | 17.64718 | 35035 ft | 444 kts | 133° |
| 2026-04-24 16:53 | 43.03961 | 17.70449 | 35040 ft | 445 kts | 133° |
| 2026-04-24 16:54 | 42.99441 | 17.76134 | 35059 ft | 445 kts | 133° |
| 2026-04-24 16:54 | 42.94879 | 17.81855 | 35047 ft | 445 kts | 133° |
| 2026-04-24 16:55 | 42.90325 | 17.87553 | 35041 ft | 444 kts | 133° |
| 2026-04-24 16:55 | 42.85764 | 17.93252 | 35037 ft | 445 kts | 133° |
| 2026-04-24 16:56 | 42.81197 | 17.98944 | 35032 ft | 445 kts | 133° |
| 2026-04-24 16:56 | 42.76637 | 18.04626 | 35030 ft | 445 kts | 134° |
| 2026-04-24 16:57 | 42.72078 | 18.10299 | 35025 ft | 444 kts | 134° |
| 2026-04-24 16:57 | 42.67499 | 18.15958 | 35012 ft | 444 kts | 134° |
| 2026-04-24 16:58 | 42.62933 | 18.21601 | 35017 ft | 444 kts | 134° |
| 2026-04-24 16:58 | 42.58170 | 18.26952 | 35016 ft | 447 kts | 140° |
| 2026-04-24 16:59 | 42.53101 | 18.31859 | 35007 ft | 447 kts | 141° |
| 2026-04-24 17:00 | 42.45494 | 18.39191 | 35018 ft | 447 kts | 141° |
| 2026-04-24 17:00 | 42.40422 | 18.44069 | 34654 ft | 445 kts | 141° |
| 2026-04-24 17:00 | 42.37888 | 18.46507 | 33889 ft | 450 kts | 141° |
| 2026-04-24 17:01 | 42.32747 | 18.51437 | 32197 ft | 455 kts | 141° |
| 2026-04-24 17:01 | 42.30189 | 18.53885 | 31351 ft | 459 kts | 141° |
| 2026-04-24 17:02 | 42.24946 | 18.58908 | 29463 ft | 466 kts | 140° |
| 2026-04-24 17:02 | 42.22314 | 18.61426 | 29002 ft | 458 kts | 140° |
| 2026-04-24 17:02 | 42.19725 | 18.63891 | 28414 ft | 454 kts | 140° |
| 2026-04-24 17:02 | 42.17162 | 18.66328 | 27832 ft | 449 kts | 140° |
| 2026-04-24 17:03 | 42.12111 | 18.71130 | 26699 ft | 440 kts | 140° |
| 2026-04-24 17:03 | 42.09624 | 18.73493 | 26137 ft | 436 kts | 140° |
| 2026-04-24 17:03 | 42.07146 | 18.75844 | 25580 ft | 433 kts | 140° |
| 2026-04-24 17:04 | 42.04696 | 18.78167 | 25027 ft | 430 kts | 140° |
| 2026-04-24 17:04 | 41.99845 | 18.82768 | 23942 ft | 423 kts | 140° |
| 2026-04-24 17:04 | 41.97447 | 18.85045 | 23375 ft | 421 kts | 140° |
| 2026-04-24 17:05 | 41.95068 | 18.87301 | 22834 ft | 417 kts | 140° |
| 2026-04-24 17:05 | 41.92708 | 18.89534 | 22335 ft | 412 kts | 140° |
| 2026-04-24 17:05 | 41.88047 | 18.93925 | 21368 ft | 405 kts | 141° |
| 2026-04-24 17:06 | 41.85742 | 18.96089 | 20888 ft | 402 kts | 141° |
| 2026-04-24 17:06 | 41.81193 | 19.00361 | 19960 ft | 397 kts | 141° |
| 2026-04-24 17:06 | 41.78942 | 19.02476 | 19497 ft | 394 kts | 141° |
| 2026-04-24 17:07 | 41.77459 | 19.03871 | 19192 ft | 392 kts | 141° |
| 2026-04-24 17:07 | 41.74481 | 19.06667 | 18574 ft | 389 kts | 141° |
| 2026-04-24 17:07 | 41.70101 | 19.10768 | 17563 ft | 383 kts | 142° |
| 2026-04-24 17:08 | 41.65783 | 19.14805 | 16600 ft | 376 kts | 142° |
| 2026-04-24 17:08 | 41.63647 | 19.16798 | 16105 ft | 373 kts | 142° |
| 2026-04-24 17:08 | 41.61527 | 19.18775 | 15617 ft | 370 kts | 142° |
| 2026-04-24 17:09 | 41.57328 | 19.22691 | 14635 ft | 365 kts | 142° |
| 2026-04-24 17:09 | 41.53180 | 19.26547 | 13625 ft | 361 kts | 142° |
| 2026-04-24 17:10 | 41.51131 | 19.28452 | 13106 ft | 358 kts | 142° |
| 2026-04-24 17:10 | 41.45089 | 19.34068 | 11649 ft | 348 kts | 143° |
| 2026-04-24 17:11 | 41.39223 | 19.39486 | 10565 ft | 329 kts | 142° |
| 2026-04-24 17:12 | 41.30520 | 19.47507 | 9868 ft | 296 kts | 142° |